SIA37 KLAX-WSSS
Flight info
| Callsign | SIA37 |
|---|---|
| Flight time | N/A |
| Altitude | 34000 |
| Route | VTU8 RZS DCT MQO DCT AUDIA DCT 36N130W 39N140W 42N150W 43N160W/N0497F360 38N170W 32N180E 28N170E/N0487F380 25N160E 21N150E/N0486F400 17N140E DCT ENDAX P515 TOKON M767 TOMAN |
| Aircraft | A359/H-SDE2E3GHIJ3J4J5LM1ORWXY/LB1D1 |
Departure
| Time | N/A |
|---|---|
| Airport | Los Angeles International Airport (KLAX) |
Arrival
| Time | 2026-05-07 04:53 |
|---|---|
| Airport | Singapore Changi Airport (WSSS) |
| Time | Latitude | Longitude | Altitude | Speed | Heading |
|---|---|---|---|---|---|
| 2026-05-07 01:32 | 13.34223 | 126.09380 | 39924 ft | 469 kts | 256° |
| 2026-05-07 01:32 | 13.33439 | 126.06125 | 39924 ft | 469 kts | 256° |
| 2026-05-07 01:33 | 13.31867 | 125.99618 | 39926 ft | 469 kts | 256° |
| 2026-05-07 01:33 | 13.30295 | 125.93118 | 39924 ft | 469 kts | 256° |
| 2026-05-07 01:34 | 13.28717 | 125.86602 | 39926 ft | 470 kts | 256° |
| 2026-05-07 01:34 | 13.27147 | 125.80129 | 39924 ft | 470 kts | 256° |
| 2026-05-07 01:35 | 13.25565 | 125.73604 | 39926 ft | 470 kts | 256° |
| 2026-05-07 01:35 | 13.23985 | 125.67087 | 39924 ft | 470 kts | 256° |
| 2026-05-07 01:36 | 13.22402 | 125.60576 | 39913 ft | 470 kts | 256° |
| 2026-05-07 01:36 | 13.20822 | 125.54101 | 39914 ft | 470 kts | 256° |
| 2026-05-07 01:37 | 13.19225 | 125.47583 | 39913 ft | 471 kts | 255° |
| 2026-05-07 01:37 | 13.17627 | 125.41066 | 39913 ft | 471 kts | 255° |
| 2026-05-07 01:38 | 13.16026 | 125.34540 | 39930 ft | 471 kts | 255° |
| 2026-05-07 01:38 | 13.14423 | 125.28015 | 39934 ft | 471 kts | 255° |
| 2026-05-07 01:39 | 13.12821 | 125.21496 | 39935 ft | 471 kts | 255° |
| 2026-05-07 01:39 | 13.11215 | 125.14969 | 39935 ft | 472 kts | 255° |
| 2026-05-07 01:40 | 13.09604 | 125.08438 | 39936 ft | 472 kts | 255° |
| 2026-05-07 01:40 | 13.07992 | 125.01901 | 39936 ft | 472 kts | 255° |
| 2026-05-07 01:41 | 13.06390 | 124.95411 | 39934 ft | 472 kts | 255° |
| 2026-05-07 01:41 | 13.04774 | 124.88876 | 39935 ft | 472 kts | 255° |
| 2026-05-07 01:42 | 13.03157 | 124.82341 | 39934 ft | 472 kts | 255° |
| 2026-05-07 01:42 | 13.01810 | 124.76909 | 39935 ft | 473 kts | 255° |
| 2026-05-07 01:43 | 13.00190 | 124.70379 | 39935 ft | 473 kts | 255° |
| 2026-05-07 01:43 | 12.98566 | 124.63849 | 39933 ft | 473 kts | 255° |
| 2026-05-07 01:44 | 12.96941 | 124.57311 | 39934 ft | 473 kts | 255° |
| 2026-05-07 01:44 | 12.95316 | 124.50777 | 39932 ft | 473 kts | 255° |
| 2026-05-07 01:45 | 12.93697 | 124.44275 | 39935 ft | 473 kts | 255° |
| 2026-05-07 01:45 | 12.92065 | 124.37732 | 39933 ft | 473 kts | 255° |
| 2026-05-07 01:46 | 12.90428 | 124.31180 | 39935 ft | 473 kts | 255° |
| 2026-05-07 01:46 | 12.88794 | 124.24653 | 39935 ft | 473 kts | 255° |
| 2026-05-07 01:47 | 12.87156 | 124.18113 | 39933 ft | 473 kts | 255° |
| 2026-05-07 01:47 | 12.85520 | 124.11579 | 39934 ft | 473 kts | 255° |
| 2026-05-07 01:48 | 12.83892 | 124.05092 | 39935 ft | 473 kts | 255° |
| 2026-05-07 01:48 | 12.82248 | 123.98548 | 39935 ft | 474 kts | 255° |
| 2026-05-07 01:49 | 12.80605 | 123.92011 | 39935 ft | 474 kts | 255° |
| 2026-05-07 01:49 | 12.78959 | 123.85470 | 39933 ft | 474 kts | 255° |
| 2026-05-07 01:50 | 12.77309 | 123.78921 | 39936 ft | 475 kts | 255° |
| 2026-05-07 01:50 | 12.75657 | 123.72367 | 39936 ft | 475 kts | 255° |
| 2026-05-07 01:51 | 12.74003 | 123.65819 | 39933 ft | 475 kts | 255° |
| 2026-05-07 01:51 | 12.72348 | 123.59268 | 39934 ft | 475 kts | 255° |
| 2026-05-07 01:52 | 12.70698 | 123.52751 | 39935 ft | 475 kts | 255° |
| 2026-05-07 01:52 | 12.69042 | 123.46209 | 39933 ft | 475 kts | 254° |
| 2026-05-07 01:53 | 12.67379 | 123.39660 | 39934 ft | 475 kts | 254° |
| 2026-05-07 01:53 | 12.65716 | 123.33113 | 39936 ft | 475 kts | 254° |
| 2026-05-07 01:54 | 12.64059 | 123.26595 | 39933 ft | 476 kts | 255° |
| 2026-05-07 01:54 | 12.62388 | 123.20034 | 39935 ft | 476 kts | 255° |
| 2026-05-07 01:55 | 12.60716 | 123.13472 | 39933 ft | 476 kts | 254° |
| 2026-05-07 01:55 | 12.59044 | 123.06913 | 39935 ft | 476 kts | 255° |
| 2026-05-07 01:56 | 12.57366 | 123.00340 | 39934 ft | 477 kts | 254° |
| 2026-05-07 01:56 | 12.55685 | 122.93765 | 39935 ft | 477 kts | 255° |
| 2026-05-07 01:57 | 12.54015 | 122.87233 | 39935 ft | 478 kts | 254° |
| 2026-05-07 01:57 | 12.52326 | 122.80643 | 39932 ft | 478 kts | 254° |
| 2026-05-07 01:58 | 12.50635 | 122.74048 | 39935 ft | 479 kts | 254° |
| 2026-05-07 01:58 | 12.48942 | 122.67453 | 39935 ft | 479 kts | 254° |
| 2026-05-07 01:59 | 12.47244 | 122.60847 | 39935 ft | 480 kts | 254° |
| 2026-05-07 01:59 | 12.45555 | 122.54278 | 39935 ft | 481 kts | 254° |
| 2026-05-07 02:00 | 12.43849 | 122.47655 | 39935 ft | 481 kts | 254° |
| 2026-05-07 02:00 | 12.42140 | 122.41021 | 39933 ft | 482 kts | 254° |
| 2026-05-07 02:01 | 12.40426 | 122.34381 | 39935 ft | 483 kts | 254° |
| 2026-05-07 02:01 | 12.38709 | 122.27736 | 39933 ft | 483 kts | 254° |
| 2026-05-07 02:02 | 12.36988 | 122.21086 | 39935 ft | 484 kts | 254° |
| 2026-05-07 02:02 | 12.35266 | 122.14432 | 39934 ft | 484 kts | 254° |
| 2026-05-07 02:03 | 12.33551 | 122.07813 | 39933 ft | 484 kts | 254° |
| 2026-05-07 02:03 | 12.31822 | 122.01151 | 39933 ft | 485 kts | 254° |
| 2026-05-07 02:04 | 12.30088 | 121.94480 | 39936 ft | 485 kts | 254° |
| 2026-05-07 02:04 | 12.28351 | 121.87802 | 39933 ft | 485 kts | 254° |
| 2026-05-07 02:05 | 12.26614 | 121.81128 | 39935 ft | 486 kts | 254° |
| 2026-05-07 02:05 | 12.24875 | 121.74459 | 39915 ft | 485 kts | 254° |
| 2026-05-07 02:06 | 12.23148 | 121.67837 | 39913 ft | 485 kts | 254° |
| 2026-05-07 02:06 | 12.21411 | 121.61182 | 39913 ft | 484 kts | 254° |
| 2026-05-07 02:07 | 12.19674 | 121.54539 | 39916 ft | 484 kts | 254° |
| 2026-05-07 02:07 | 12.17068 | 121.44583 | 39914 ft | 483 kts | 254° |
| 2026-05-07 02:08 | 12.15326 | 121.37936 | 39913 ft | 483 kts | 254° |
| 2026-05-07 02:08 | 12.13589 | 121.31314 | 39915 ft | 481 kts | 254° |
| 2026-05-07 02:09 | 12.11865 | 121.24756 | 39913 ft | 481 kts | 254° |
| 2026-05-07 02:09 | 12.10135 | 121.18167 | 39913 ft | 480 kts | 254° |
| 2026-05-07 02:10 | 12.08403 | 121.11583 | 39920 ft | 479 kts | 254° |
| 2026-05-07 02:10 | 12.06670 | 121.05006 | 39919 ft | 479 kts | 254° |
| 2026-05-07 02:11 | 12.04940 | 120.98446 | 39916 ft | 478 kts | 254° |
| 2026-05-07 02:11 | 12.03211 | 120.91896 | 39916 ft | 477 kts | 254° |
| 2026-05-07 02:12 | 12.01484 | 120.85361 | 39913 ft | 476 kts | 254° |
| 2026-05-07 02:12 | 11.99760 | 120.78837 | 39914 ft | 475 kts | 254° |
| 2026-05-07 02:13 | 11.98033 | 120.72315 | 39914 ft | 476 kts | 254° |
| 2026-05-07 02:13 | 11.96308 | 120.65816 | 39917 ft | 477 kts | 254° |
| 2026-05-07 02:14 | 11.94576 | 120.59285 | 39916 ft | 476 kts | 254° |
| 2026-05-07 02:14 | 11.92847 | 120.52768 | 39915 ft | 475 kts | 254° |
| 2026-05-07 02:15 | 11.91117 | 120.46252 | 39914 ft | 474 kts | 254° |
| 2026-05-07 02:15 | 11.89388 | 120.39751 | 39913 ft | 474 kts | 254° |
| 2026-05-07 02:16 | 11.87672 | 120.33303 | 39914 ft | 473 kts | 254° |
| 2026-05-07 02:16 | 11.85945 | 120.26819 | 39919 ft | 472 kts | 254° |
| 2026-05-07 02:17 | 11.84218 | 120.20338 | 39913 ft | 473 kts | 254° |
| 2026-05-07 02:17 | 11.82484 | 120.13851 | 39920 ft | 473 kts | 254° |
| 2026-05-07 02:18 | 11.80753 | 120.07376 | 39914 ft | 472 kts | 254° |
| 2026-05-07 02:18 | 11.79023 | 120.00911 | 39918 ft | 472 kts | 254° |
| 2026-05-07 02:19 | 11.77306 | 119.94497 | 39914 ft | 471 kts | 254° |
| 2026-05-07 02:19 | 11.75575 | 119.88040 | 39914 ft | 472 kts | 254° |
| 2026-05-07 02:20 | 11.73841 | 119.81577 | 39915 ft | 472 kts | 254° |
| 2026-05-07 02:20 | 11.72109 | 119.75127 | 39914 ft | 472 kts | 254° |
| 2026-05-07 02:21 | 11.70155 | 119.68732 | 39914 ft | 471 kts | 246° |
| 2026-05-07 02:21 | 11.66887 | 119.63016 | 39909 ft | 471 kts | 235° |
| 2026-05-07 02:22 | 11.63064 | 119.57577 | 39906 ft | 472 kts | 234° |
| 2026-05-07 02:22 | 11.59162 | 119.52186 | 39906 ft | 472 kts | 233° |
| 2026-05-07 02:23 | 11.55276 | 119.46795 | 39906 ft | 472 kts | 234° |
| 2026-05-07 02:23 | 11.51397 | 119.41387 | 39908 ft | 472 kts | 234° |
| 2026-05-07 02:24 | 11.47518 | 119.35967 | 39905 ft | 472 kts | 234° |
| 2026-05-07 02:24 | 11.43639 | 119.30552 | 39906 ft | 472 kts | 234° |
| 2026-05-07 02:25 | 11.39787 | 119.25176 | 39906 ft | 472 kts | 234° |
| 2026-05-07 02:25 | 11.35905 | 119.19763 | 39906 ft | 473 kts | 234° |
| 2026-05-07 02:26 | 11.32016 | 119.14342 | 39907 ft | 473 kts | 234° |
| 2026-05-07 02:26 | 11.28127 | 119.08926 | 39906 ft | 473 kts | 234° |
| 2026-05-07 02:27 | 11.24236 | 119.03509 | 39906 ft | 473 kts | 234° |
| 2026-05-07 02:27 | 11.20373 | 118.98133 | 39907 ft | 473 kts | 234° |
| 2026-05-07 02:28 | 11.16485 | 118.92724 | 39905 ft | 473 kts | 234° |
| 2026-05-07 02:28 | 11.12599 | 118.87321 | 39909 ft | 473 kts | 234° |
| 2026-05-07 02:29 | 11.08698 | 118.81914 | 39906 ft | 473 kts | 234° |
| 2026-05-07 02:29 | 11.04803 | 118.76502 | 39906 ft | 473 kts | 234° |
| 2026-05-07 02:30 | 11.00912 | 118.71099 | 39906 ft | 473 kts | 234° |
| 2026-05-07 02:30 | 10.97021 | 118.65700 | 39906 ft | 473 kts | 234° |
| 2026-05-07 02:31 | 10.93154 | 118.60337 | 39906 ft | 473 kts | 234° |
| 2026-05-07 02:31 | 10.89256 | 118.54935 | 39905 ft | 473 kts | 234° |
| 2026-05-07 02:32 | 10.85356 | 118.49532 | 39906 ft | 474 kts | 233° |
| 2026-05-07 02:32 | 10.82111 | 118.45042 | 39907 ft | 474 kts | 234° |
| 2026-05-07 02:33 | 10.78206 | 118.39637 | 39906 ft | 474 kts | 233° |
| 2026-05-07 02:33 | 10.74298 | 118.34229 | 39907 ft | 474 kts | 233° |
| 2026-05-07 02:34 | 10.70390 | 118.28827 | 39906 ft | 474 kts | 233° |
| 2026-05-07 02:34 | 10.66499 | 118.23454 | 39905 ft | 474 kts | 233° |
| 2026-05-07 02:35 | 10.62585 | 118.18049 | 39906 ft | 474 kts | 233° |
| 2026-05-07 02:35 | 10.58674 | 118.12648 | 39905 ft | 474 kts | 233° |
| 2026-05-07 02:36 | 10.54762 | 118.07248 | 39908 ft | 474 kts | 233° |
| 2026-05-07 02:36 | 10.50844 | 118.01842 | 39905 ft | 475 kts | 233° |
| 2026-05-07 02:37 | 10.46944 | 117.96469 | 39907 ft | 475 kts | 233° |
| 2026-05-07 02:37 | 10.43029 | 117.91077 | 39907 ft | 474 kts | 233° |
| 2026-05-07 02:38 | 10.39109 | 117.85680 | 39906 ft | 474 kts | 233° |
| 2026-05-07 02:38 | 10.35187 | 117.80285 | 39906 ft | 474 kts | 233° |
| 2026-05-07 02:39 | 10.31288 | 117.74879 | 39906 ft | 474 kts | 234° |
| 2026-05-07 02:39 | 10.27422 | 117.69458 | 39908 ft | 474 kts | 234° |
| 2026-05-07 02:40 | 10.23576 | 117.64075 | 39906 ft | 474 kts | 234° |
| 2026-05-07 02:40 | 10.19694 | 117.58653 | 39907 ft | 474 kts | 234° |
| 2026-05-07 02:41 | 10.15810 | 117.53239 | 39906 ft | 474 kts | 234° |
| 2026-05-07 02:41 | 10.11912 | 117.47809 | 39906 ft | 475 kts | 234° |
| 2026-05-07 02:42 | 10.08018 | 117.42386 | 39906 ft | 475 kts | 234° |
| 2026-05-07 02:42 | 10.04146 | 117.36995 | 39906 ft | 475 kts | 234° |
| 2026-05-07 02:43 | 10.00248 | 117.31571 | 39906 ft | 475 kts | 234° |
| 2026-05-07 02:43 | 9.96356 | 117.26160 | 39906 ft | 475 kts | 234° |
| 2026-05-07 02:44 | 9.92457 | 117.20737 | 39906 ft | 476 kts | 234° |
| 2026-05-07 02:44 | 9.88544 | 117.15300 | 39906 ft | 477 kts | 234° |
| 2026-05-07 02:45 | 9.84659 | 117.09905 | 39906 ft | 477 kts | 234° |
| 2026-05-07 02:45 | 9.80742 | 117.04466 | 39906 ft | 477 kts | 234° |
| 2026-05-07 02:46 | 9.76830 | 116.99036 | 39906 ft | 478 kts | 234° |
| 2026-05-07 02:46 | 9.72903 | 116.93590 | 39906 ft | 478 kts | 234° |
| 2026-05-07 02:47 | 9.68976 | 116.88146 | 39906 ft | 478 kts | 234° |
| 2026-05-07 02:47 | 9.65055 | 116.82713 | 39898 ft | 478 kts | 234° |
| 2026-05-07 02:48 | 9.61125 | 116.77269 | 39897 ft | 478 kts | 234° |
| 2026-05-07 02:48 | 9.57218 | 116.71861 | 39896 ft | 478 kts | 234° |
| 2026-05-07 02:49 | 9.53286 | 116.66418 | 39897 ft | 479 kts | 234° |
| 2026-05-07 02:49 | 9.49349 | 116.60970 | 39897 ft | 479 kts | 234° |
| 2026-05-07 02:50 | 9.45411 | 116.55524 | 39897 ft | 479 kts | 234° |
| 2026-05-07 02:50 | 9.41466 | 116.50073 | 39897 ft | 479 kts | 234° |
| 2026-05-07 02:51 | 9.37551 | 116.44665 | 39897 ft | 479 kts | 234° |
| 2026-05-07 02:51 | 9.33614 | 116.39228 | 39890 ft | 479 kts | 234° |
| 2026-05-07 02:52 | 9.29664 | 116.33779 | 39887 ft | 479 kts | 234° |
| 2026-05-07 02:52 | 9.25718 | 116.28342 | 39888 ft | 480 kts | 234° |
| 2026-05-07 02:53 | 9.21772 | 116.22940 | 39888 ft | 480 kts | 233° |
| 2026-05-07 02:53 | 9.17798 | 116.17506 | 39888 ft | 480 kts | 233° |
| 2026-05-07 02:54 | 9.13821 | 116.12068 | 39888 ft | 479 kts | 233° |
| 2026-05-07 02:54 | 9.09854 | 116.06647 | 39888 ft | 480 kts | 233° |
| 2026-05-07 02:55 | 9.05876 | 116.01210 | 39888 ft | 480 kts | 233° |
| 2026-05-07 02:55 | 9.01914 | 115.95795 | 39897 ft | 481 kts | 233° |
| 2026-05-07 02:56 | 8.97924 | 115.90351 | 39897 ft | 482 kts | 233° |
| 2026-05-07 02:56 | 8.93933 | 115.84906 | 39897 ft | 482 kts | 233° |
| 2026-05-07 02:57 | 8.89935 | 115.79452 | 39897 ft | 482 kts | 233° |
| 2026-05-07 02:57 | 8.85959 | 115.74022 | 39897 ft | 483 kts | 233° |
| 2026-05-07 02:58 | 8.81953 | 115.68558 | 39897 ft | 483 kts | 233° |
| 2026-05-07 02:58 | 8.77952 | 115.63098 | 39897 ft | 483 kts | 233° |
| 2026-05-07 02:59 | 8.73944 | 115.57638 | 39897 ft | 483 kts | 233° |
| 2026-05-07 02:59 | 8.69932 | 115.52176 | 39896 ft | 483 kts | 233° |
| 2026-05-07 03:00 | 8.65944 | 115.46747 | 39897 ft | 484 kts | 233° |
| 2026-05-07 03:00 | 8.61929 | 115.41283 | 39896 ft | 484 kts | 233° |
| 2026-05-07 03:01 | 8.57911 | 115.35816 | 39888 ft | 484 kts | 233° |
| 2026-05-07 03:01 | 8.53900 | 115.30358 | 39887 ft | 484 kts | 233° |
| 2026-05-07 03:02 | 8.49886 | 115.24897 | 39888 ft | 484 kts | 233° |
| 2026-05-07 03:02 | 8.45865 | 115.19438 | 39888 ft | 484 kts | 233° |
| 2026-05-07 03:03 | 8.41843 | 115.13980 | 39888 ft | 484 kts | 233° |
| 2026-05-07 03:03 | 8.37825 | 115.08528 | 39888 ft | 484 kts | 233° |
| 2026-05-07 03:04 | 8.33826 | 115.03099 | 39888 ft | 485 kts | 233° |
| 2026-05-07 03:04 | 8.29800 | 114.97631 | 39887 ft | 485 kts | 233° |
| 2026-05-07 03:05 | 8.25767 | 114.92163 | 39888 ft | 486 kts | 233° |
| 2026-05-07 03:05 | 8.21726 | 114.86686 | 39890 ft | 486 kts | 233° |
| 2026-05-07 03:06 | 8.17693 | 114.81222 | 39888 ft | 486 kts | 234° |
| 2026-05-07 03:06 | 8.13639 | 114.75731 | 39887 ft | 487 kts | 233° |
| 2026-05-07 03:07 | 8.09608 | 114.70274 | 39888 ft | 488 kts | 233° |
| 2026-05-07 03:07 | 8.05548 | 114.64777 | 39888 ft | 488 kts | 233° |
| 2026-05-07 03:08 | 8.01485 | 114.59281 | 39888 ft | 489 kts | 234° |
| 2026-05-07 03:08 | 7.97415 | 114.53778 | 39887 ft | 489 kts | 233° |
| 2026-05-07 03:09 | 7.93339 | 114.48267 | 39888 ft | 490 kts | 233° |
| 2026-05-07 03:09 | 7.89286 | 114.42787 | 39878 ft | 489 kts | 233° |
| 2026-05-07 03:10 | 7.85201 | 114.37268 | 39880 ft | 490 kts | 234° |
| 2026-05-07 03:10 | 7.81118 | 114.31753 | 39878 ft | 490 kts | 233° |
| 2026-05-07 03:11 | 7.77051 | 114.26266 | 39878 ft | 491 kts | 233° |
| 2026-05-07 03:11 | 7.72966 | 114.20756 | 39879 ft | 491 kts | 233° |
| 2026-05-07 03:12 | 7.68884 | 114.15244 | 39878 ft | 490 kts | 233° |
| 2026-05-07 03:12 | 7.64799 | 114.09732 | 39878 ft | 490 kts | 233° |
| 2026-05-07 03:13 | 7.60711 | 114.04224 | 39878 ft | 491 kts | 233° |
| 2026-05-07 03:13 | 7.56615 | 113.98707 | 39886 ft | 491 kts | 233° |
| 2026-05-07 03:14 | 7.52524 | 113.93195 | 39888 ft | 490 kts | 233° |
| 2026-05-07 03:15 | 7.46413 | 113.84967 | 39888 ft | 491 kts | 233° |
| 2026-05-07 03:15 | 7.42323 | 113.79464 | 39888 ft | 490 kts | 233° |
| 2026-05-07 03:16 | 7.38234 | 113.73966 | 39888 ft | 490 kts | 233° |
| 2026-05-07 03:16 | 7.34171 | 113.68501 | 39888 ft | 490 kts | 233° |
| 2026-05-07 03:17 | 7.30078 | 113.62996 | 39888 ft | 490 kts | 233° |
| 2026-05-07 03:17 | 7.25987 | 113.57500 | 39887 ft | 490 kts | 233° |
| 2026-05-07 03:18 | 7.21895 | 113.52001 | 39888 ft | 490 kts | 233° |
| 2026-05-07 03:18 | 7.17824 | 113.46533 | 39887 ft | 490 kts | 233° |
| 2026-05-07 03:19 | 7.13735 | 113.41044 | 39888 ft | 490 kts | 233° |
| 2026-05-07 03:19 | 7.09643 | 113.35553 | 39888 ft | 489 kts | 233° |
| 2026-05-07 03:20 | 7.05557 | 113.30070 | 39888 ft | 489 kts | 233° |
| 2026-05-07 03:20 | 7.01498 | 113.24625 | 39869 ft | 488 kts | 233° |
| 2026-05-07 03:21 | 6.97414 | 113.19149 | 39869 ft | 489 kts | 233° |
| 2026-05-07 03:21 | 6.93330 | 113.13674 | 39868 ft | 489 kts | 233° |
| 2026-05-07 03:22 | 6.89244 | 113.08200 | 39859 ft | 489 kts | 233° |
| 2026-05-07 03:22 | 6.85176 | 113.02753 | 39878 ft | 489 kts | 233° |
| 2026-05-07 03:23 | 6.81093 | 112.97284 | 39869 ft | 488 kts | 233° |
| 2026-05-07 03:23 | 6.77695 | 112.92734 | 39869 ft | 489 kts | 233° |
| 2026-05-07 03:24 | 6.73609 | 112.87267 | 39869 ft | 489 kts | 233° |
| 2026-05-07 03:24 | 6.69518 | 112.81796 | 39869 ft | 489 kts | 233° |
| 2026-05-07 03:25 | 6.65425 | 112.76322 | 39870 ft | 489 kts | 233° |
| 2026-05-07 03:25 | 6.61332 | 112.70849 | 39869 ft | 489 kts | 233° |
| 2026-05-07 03:26 | 6.57249 | 112.65392 | 39869 ft | 488 kts | 233° |
| 2026-05-07 03:26 | 6.53185 | 112.59965 | 39870 ft | 488 kts | 233° |
| 2026-05-07 03:27 | 6.49092 | 112.54499 | 39868 ft | 489 kts | 233° |
| 2026-05-07 03:27 | 6.45005 | 112.49037 | 39869 ft | 489 kts | 233° |
| 2026-05-07 03:28 | 6.40913 | 112.43577 | 39869 ft | 489 kts | 233° |
| 2026-05-07 03:28 | 6.36822 | 112.38119 | 39869 ft | 489 kts | 233° |
| 2026-05-07 03:29 | 6.32754 | 112.32688 | 39868 ft | 488 kts | 233° |
| 2026-05-07 03:29 | 6.28661 | 112.27233 | 39870 ft | 489 kts | 233° |
| 2026-05-07 03:30 | 6.24565 | 112.21774 | 39869 ft | 489 kts | 233° |
| 2026-05-07 03:30 | 6.20469 | 112.16316 | 39869 ft | 488 kts | 233° |
| 2026-05-07 03:31 | 6.16380 | 112.10869 | 39869 ft | 488 kts | 233° |
| 2026-05-07 03:31 | 6.12293 | 112.05424 | 39869 ft | 488 kts | 233° |
| 2026-05-07 03:32 | 6.08203 | 111.99978 | 39869 ft | 488 kts | 233° |
| 2026-05-07 03:32 | 6.04142 | 111.94572 | 39869 ft | 488 kts | 233° |
| 2026-05-07 03:33 | 6.00046 | 111.89122 | 39869 ft | 488 kts | 233° |
| 2026-05-07 03:33 | 5.95958 | 111.83681 | 39870 ft | 488 kts | 233° |
| 2026-05-07 03:34 | 5.91866 | 111.78238 | 39866 ft | 488 kts | 233° |
| 2026-05-07 03:34 | 5.87776 | 111.72796 | 39861 ft | 488 kts | 233° |
| 2026-05-07 03:35 | 5.83683 | 111.67356 | 39869 ft | 488 kts | 233° |
| 2026-05-07 03:35 | 5.79583 | 111.61911 | 39869 ft | 488 kts | 233° |
| 2026-05-07 03:36 | 5.75505 | 111.56491 | 39869 ft | 489 kts | 233° |
| 2026-05-07 03:36 | 5.71400 | 111.51039 | 39869 ft | 490 kts | 233° |
| 2026-05-07 03:37 | 5.67290 | 111.45582 | 39869 ft | 490 kts | 232° |
| 2026-05-07 03:37 | 5.63178 | 111.40125 | 39866 ft | 489 kts | 233° |
| 2026-05-07 03:38 | 5.59063 | 111.34661 | 39869 ft | 490 kts | 232° |
| 2026-05-07 03:38 | 5.54969 | 111.29232 | 39870 ft | 491 kts | 232° |
| 2026-05-07 03:39 | 5.50845 | 111.23762 | 39869 ft | 492 kts | 232° |
| 2026-05-07 03:39 | 5.46714 | 111.18284 | 39869 ft | 492 kts | 232° |
| 2026-05-07 03:40 | 5.42578 | 111.12802 | 39869 ft | 493 kts | 232° |
| 2026-05-07 03:40 | 5.38435 | 111.07310 | 39870 ft | 493 kts | 232° |
| 2026-05-07 03:41 | 5.34298 | 111.01827 | 39869 ft | 493 kts | 232° |
| 2026-05-07 03:41 | 5.30186 | 110.96378 | 39874 ft | 493 kts | 232° |
| 2026-05-07 03:42 | 5.26037 | 110.90884 | 39879 ft | 493 kts | 232° |
| 2026-05-07 03:42 | 5.21882 | 110.85385 | 39878 ft | 493 kts | 232° |
| 2026-05-07 03:43 | 5.17753 | 110.79918 | 39874 ft | 494 kts | 232° |
| 2026-05-07 03:43 | 5.13600 | 110.74421 | 39878 ft | 494 kts | 232° |
| 2026-05-07 03:44 | 5.09444 | 110.68922 | 39879 ft | 494 kts | 232° |
| 2026-05-07 03:44 | 5.05282 | 110.63440 | 39888 ft | 492 kts | 232° |
| 2026-05-07 03:45 | 5.01152 | 110.57979 | 39887 ft | 495 kts | 232° |
| 2026-05-07 03:45 | 4.96997 | 110.52463 | 39888 ft | 495 kts | 232° |
| 2026-05-07 03:46 | 4.92833 | 110.46953 | 39888 ft | 495 kts | 232° |
| 2026-05-07 03:46 | 4.88662 | 110.41443 | 39888 ft | 495 kts | 232° |
| 2026-05-07 03:47 | 4.84488 | 110.35929 | 39897 ft | 496 kts | 232° |
| 2026-05-07 03:47 | 4.80315 | 110.30416 | 39896 ft | 496 kts | 232° |
| 2026-05-07 03:48 | 4.76166 | 110.24939 | 39888 ft | 496 kts | 232° |
| 2026-05-07 03:48 | 4.71989 | 110.19424 | 39888 ft | 497 kts | 232° |
| 2026-05-07 03:49 | 4.67806 | 110.13900 | 39888 ft | 496 kts | 232° |
| 2026-05-07 03:49 | 4.63627 | 110.08384 | 39888 ft | 496 kts | 232° |
| 2026-05-07 03:50 | 4.59474 | 110.02906 | 39888 ft | 497 kts | 232° |
| 2026-05-07 03:50 | 4.55269 | 109.97361 | 39878 ft | 497 kts | 232° |
| 2026-05-07 03:51 | 4.51105 | 109.91872 | 39878 ft | 498 kts | 232° |
| 2026-05-07 03:51 | 4.46911 | 109.86340 | 39878 ft | 498 kts | 232° |
| 2026-05-07 03:52 | 4.42719 | 109.80811 | 39878 ft | 498 kts | 232° |
| 2026-05-07 03:52 | 4.38521 | 109.75280 | 39879 ft | 498 kts | 232° |
| 2026-05-07 03:53 | 4.34332 | 109.69759 | 39878 ft | 498 kts | 232° |
| 2026-05-07 03:53 | 4.30163 | 109.64266 | 39878 ft | 498 kts | 232° |
| 2026-05-07 03:54 | 4.25967 | 109.58739 | 39879 ft | 498 kts | 232° |
| 2026-05-07 03:54 | 4.21773 | 109.53218 | 39878 ft | 498 kts | 232° |
| 2026-05-07 03:55 | 4.17583 | 109.47702 | 39878 ft | 498 kts | 232° |
| 2026-05-07 03:55 | 4.13385 | 109.42176 | 39878 ft | 498 kts | 232° |
| 2026-05-07 03:56 | 4.09191 | 109.36655 | 39878 ft | 498 kts | 232° |
| 2026-05-07 03:56 | 4.04999 | 109.31139 | 39879 ft | 497 kts | 232° |
| 2026-05-07 03:57 | 4.00832 | 109.25657 | 39879 ft | 497 kts | 232° |
| 2026-05-07 03:57 | 3.96635 | 109.20136 | 39879 ft | 497 kts | 232° |
| 2026-05-07 03:58 | 3.92435 | 109.14612 | 39877 ft | 497 kts | 232° |
| 2026-05-07 03:58 | 3.88243 | 109.09104 | 39879 ft | 497 kts | 232° |
| 2026-05-07 03:59 | 3.84058 | 109.03603 | 39878 ft | 497 kts | 232° |
| 2026-05-07 03:59 | 3.79900 | 108.98139 | 39878 ft | 496 kts | 232° |
| 2026-05-07 04:00 | 3.75719 | 108.92644 | 39879 ft | 496 kts | 232° |
| 2026-05-07 04:00 | 3.71528 | 108.87138 | 39879 ft | 496 kts | 232° |
| 2026-05-07 04:01 | 3.67348 | 108.81641 | 39878 ft | 496 kts | 232° |
| 2026-05-07 04:01 | 3.63183 | 108.76143 | 39878 ft | 495 kts | 232° |
| 2026-05-07 04:02 | 3.59044 | 108.70680 | 39878 ft | 495 kts | 232° |
| 2026-05-07 04:02 | 3.54870 | 108.65180 | 39878 ft | 495 kts | 232° |
| 2026-05-07 04:03 | 3.50700 | 108.59688 | 39878 ft | 496 kts | 232° |
| 2026-05-07 04:03 | 3.46523 | 108.54185 | 39878 ft | 495 kts | 232° |
| 2026-05-07 04:04 | 3.42352 | 108.48689 | 39878 ft | 495 kts | 232° |
| 2026-05-07 04:04 | 3.38212 | 108.43234 | 39880 ft | 495 kts | 232° |
| 2026-05-07 04:05 | 3.34039 | 108.37738 | 39878 ft | 495 kts | 232° |
| 2026-05-07 04:05 | 3.29868 | 108.32247 | 39878 ft | 495 kts | 232° |
| 2026-05-07 04:06 | 3.25695 | 108.26757 | 39879 ft | 495 kts | 232° |
| 2026-05-07 04:06 | 3.21526 | 108.21267 | 39878 ft | 495 kts | 232° |
| 2026-05-07 04:07 | 3.17354 | 108.15775 | 39879 ft | 495 kts | 232° |
| 2026-05-07 04:07 | 3.13204 | 108.10313 | 39879 ft | 496 kts | 232° |
| 2026-05-07 04:08 | 3.09025 | 108.04816 | 39878 ft | 496 kts | 232° |
| 2026-05-07 04:08 | 3.04843 | 107.99315 | 39879 ft | 496 kts | 232° |
| 2026-05-07 04:09 | 3.00663 | 107.93816 | 39878 ft | 496 kts | 231° |
| 2026-05-07 04:09 | 2.96500 | 107.88342 | 39878 ft | 496 kts | 231° |
| 2026-05-07 04:10 | 2.92321 | 107.82848 | 39878 ft | 496 kts | 231° |
| 2026-05-07 04:10 | 2.88139 | 107.77350 | 39878 ft | 496 kts | 231° |
| 2026-05-07 04:11 | 2.83959 | 107.71853 | 39879 ft | 497 kts | 231° |
| 2026-05-07 04:11 | 2.79769 | 107.66347 | 39878 ft | 496 kts | 231° |
| 2026-05-07 04:12 | 2.75582 | 107.60846 | 39879 ft | 497 kts | 231° |
| 2026-05-07 04:12 | 2.71421 | 107.55380 | 39878 ft | 497 kts | 231° |
| 2026-05-07 04:13 | 2.67235 | 107.49879 | 39877 ft | 497 kts | 231° |
| 2026-05-07 04:13 | 2.63048 | 107.44377 | 39878 ft | 497 kts | 231° |
| 2026-05-07 04:14 | 2.58859 | 107.38875 | 39878 ft | 497 kts | 231° |
| 2026-05-07 04:14 | 2.55381 | 107.34306 | 39878 ft | 497 kts | 231° |
| 2026-05-07 04:15 | 2.51190 | 107.28803 | 39879 ft | 497 kts | 231° |
| 2026-05-07 04:15 | 2.47002 | 107.23304 | 39879 ft | 497 kts | 231° |
| 2026-05-07 04:16 | 2.42807 | 107.17794 | 39879 ft | 497 kts | 231° |
| 2026-05-07 04:16 | 2.38617 | 107.12295 | 39879 ft | 497 kts | 231° |
| 2026-05-07 04:17 | 2.34427 | 107.06811 | 39879 ft | 497 kts | 231° |
| 2026-05-07 04:17 | 2.30223 | 107.01325 | 39885 ft | 496 kts | 231° |
| 2026-05-07 04:18 | 2.26212 | 106.96086 | 39888 ft | 496 kts | 231° |
| 2026-05-07 04:18 | 2.23072 | 106.91986 | 39888 ft | 496 kts | 231° |
| 2026-05-07 04:19 | 2.18875 | 106.86507 | 39888 ft | 496 kts | 231° |
| 2026-05-07 04:19 | 2.14677 | 106.81029 | 39888 ft | 496 kts | 231° |
| 2026-05-07 04:20 | 2.10478 | 106.75550 | 39888 ft | 496 kts | 231° |
| 2026-05-07 04:20 | 2.06277 | 106.70068 | 39870 ft | 496 kts | 231° |
| 2026-05-07 04:21 | 1.99983 | 106.61854 | 39869 ft | 496 kts | 231° |
| 2026-05-07 04:21 | 1.95783 | 106.56376 | 39868 ft | 495 kts | 231° |
| 2026-05-07 04:22 | 1.91617 | 106.50943 | 39869 ft | 495 kts | 231° |
| 2026-05-07 04:22 | 1.87425 | 106.45475 | 39868 ft | 495 kts | 231° |
| 2026-05-07 04:23 | 1.83230 | 106.40004 | 39868 ft | 495 kts | 231° |
| 2026-05-07 04:23 | 1.79043 | 106.34542 | 39868 ft | 495 kts | 231° |
| 2026-05-07 04:24 | 1.74846 | 106.29068 | 39870 ft | 495 kts | 231° |
| 2026-05-07 04:24 | 1.70680 | 106.23636 | 39869 ft | 495 kts | 231° |
| 2026-05-07 04:25 | 1.66484 | 106.18166 | 39869 ft | 495 kts | 231° |
| 2026-05-07 04:25 | 1.62288 | 106.12696 | 39870 ft | 495 kts | 231° |
| 2026-05-07 04:26 | 1.60190 | 106.09961 | 39599 ft | 493 kts | 231° |
| 2026-05-07 04:26 | 1.58110 | 106.07248 | 39081 ft | 490 kts | 231° |
| 2026-05-07 04:26 | 1.56032 | 106.04537 | 38398 ft | 490 kts | 231° |
| 2026-05-07 04:26 | 1.53987 | 106.01870 | 37727 ft | 490 kts | 231° |
| 2026-05-07 04:27 | 1.51912 | 105.99164 | 37047 ft | 490 kts | 231° |
| 2026-05-07 04:27 | 1.49836 | 105.96456 | 36354 ft | 491 kts | 231° |
| 2026-05-07 04:27 | 1.47754 | 105.93741 | 35648 ft | 491 kts | 231° |
| 2026-05-07 04:27 | 1.45678 | 105.91035 | 34914 ft | 491 kts | 231° |
| 2026-05-07 04:28 | 1.43599 | 105.88324 | 34507 ft | 493 kts | 231° |
| 2026-05-07 04:28 | 1.41490 | 105.85577 | 34258 ft | 502 kts | 231° |
| 2026-05-07 04:28 | 1.39355 | 105.82793 | 34005 ft | 506 kts | 231° |
| 2026-05-07 04:28 | 1.37208 | 105.79995 | 33746 ft | 509 kts | 231° |
| 2026-05-07 04:29 | 1.35043 | 105.77177 | 33504 ft | 511 kts | 231° |
| 2026-05-07 04:29 | 1.32882 | 105.74354 | 33247 ft | 512 kts | 231° |
| 2026-05-07 04:29 | 1.30716 | 105.71522 | 33006 ft | 513 kts | 231° |
| 2026-05-07 04:29 | 1.28547 | 105.68684 | 32733 ft | 512 kts | 231° |
| 2026-05-07 04:30 | 1.26400 | 105.65876 | 32209 ft | 506 kts | 231° |
| 2026-05-07 04:30 | 1.24270 | 105.63093 | 31606 ft | 502 kts | 231° |
| 2026-05-07 04:30 | 1.22161 | 105.60334 | 31000 ft | 497 kts | 231° |
| 2026-05-07 04:30 | 1.20294 | 105.57432 | 30385 ft | 495 kts | 242° |
| 2026-05-07 04:31 | 1.19163 | 105.54207 | 29767 ft | 493 kts | 258° |
| 2026-05-07 04:31 | 1.18818 | 105.50818 | 29160 ft | 489 kts | 267° |
| 2026-05-07 04:31 | 1.18729 | 105.47427 | 28559 ft | 485 kts | 268° |
| 2026-05-07 04:31 | 1.18662 | 105.44109 | 27973 ft | 481 kts | 268° |
| 2026-05-07 04:32 | 1.18590 | 105.40778 | 27383 ft | 477 kts | 268° |
| 2026-05-07 04:32 | 1.18513 | 105.37478 | 26789 ft | 473 kts | 268° |
| 2026-05-07 04:32 | 1.18434 | 105.34197 | 26202 ft | 469 kts | 268° |
| 2026-05-07 04:32 | 1.18353 | 105.30955 | 25610 ft | 465 kts | 268° |
| 2026-05-07 04:33 | 1.18273 | 105.27730 | 25026 ft | 461 kts | 268° |
| 2026-05-07 04:33 | 1.18192 | 105.24543 | 24442 ft | 457 kts | 268° |
| 2026-05-07 04:33 | 1.18112 | 105.21413 | 23854 ft | 453 kts | 268° |
| 2026-05-07 04:33 | 1.18032 | 105.18278 | 23258 ft | 449 kts | 268° |
| 2026-05-07 04:34 | 1.17952 | 105.15167 | 22690 ft | 445 kts | 268° |
| 2026-05-07 04:34 | 1.17874 | 105.12092 | 22090 ft | 441 kts | 269° |
| 2026-05-07 04:34 | 1.17796 | 105.09046 | 21505 ft | 436 kts | 269° |
| 2026-05-07 04:34 | 1.17732 | 105.06027 | 20932 ft | 432 kts | 269° |
| 2026-05-07 04:35 | 1.17670 | 105.03038 | 20339 ft | 428 kts | 269° |
| 2026-05-07 04:35 | 1.17609 | 105.00078 | 19768 ft | 424 kts | 269° |
| 2026-05-07 04:35 | 1.17548 | 104.97145 | 19181 ft | 420 kts | 269° |
| 2026-05-07 04:35 | 1.17486 | 104.94238 | 18600 ft | 417 kts | 269° |
| 2026-05-07 04:36 | 1.17425 | 104.91347 | 18010 ft | 413 kts | 269° |
| 2026-05-07 04:36 | 1.17365 | 104.88528 | 17457 ft | 409 kts | 269° |
| 2026-05-07 04:36 | 1.17306 | 104.85700 | 16893 ft | 405 kts | 269° |
| 2026-05-07 04:36 | 1.17245 | 104.82896 | 16323 ft | 401 kts | 269° |
| 2026-05-07 04:37 | 1.17185 | 104.80121 | 15782 ft | 397 kts | 269° |
| 2026-05-07 04:37 | 1.17121 | 104.77366 | 15413 ft | 396 kts | 269° |
| 2026-05-07 04:37 | 1.17058 | 104.74603 | 15046 ft | 396 kts | 269° |
| 2026-05-07 04:37 | 1.16996 | 104.71858 | 14670 ft | 394 kts | 269° |
| 2026-05-07 04:38 | 1.16933 | 104.69126 | 14299 ft | 392 kts | 269° |
| 2026-05-07 04:38 | 1.16871 | 104.66447 | 13927 ft | 389 kts | 269° |
| 2026-05-07 04:38 | 1.16810 | 104.63751 | 13556 ft | 387 kts | 269° |
| 2026-05-07 04:38 | 1.16749 | 104.61068 | 13245 ft | 384 kts | 269° |
| 2026-05-07 04:39 | 1.16687 | 104.58401 | 12965 ft | 383 kts | 269° |
| 2026-05-07 04:39 | 1.16626 | 104.55746 | 12622 ft | 381 kts | 269° |
| 2026-05-07 04:39 | 1.16564 | 104.53113 | 12254 ft | 378 kts | 269° |
| 2026-05-07 04:39 | 1.16504 | 104.50517 | 12024 ft | 367 kts | 269° |
| 2026-05-07 04:40 | 1.16462 | 104.48010 | 11797 ft | 353 kts | 271° |
| 2026-05-07 04:40 | 1.16758 | 104.45644 | 11463 ft | 332 kts | 286° |
| 2026-05-07 04:40 | 1.17628 | 104.43608 | 11156 ft | 312 kts | 301° |
| 2026-05-07 04:40 | 1.18796 | 104.41796 | 10865 ft | 308 kts | 305° |
| 2026-05-07 04:41 | 1.19990 | 104.40057 | 10605 ft | 307 kts | 305° |
| 2026-05-07 04:41 | 1.21192 | 104.38307 | 10284 ft | 303 kts | 305° |
| 2026-05-07 04:41 | 1.22382 | 104.36567 | 9927 ft | 304 kts | 304° |
| 2026-05-07 04:41 | 1.23636 | 104.34879 | 9660 ft | 299 kts | 312° |
| 2026-05-07 04:42 | 1.25189 | 104.33505 | 9131 ft | 299 kts | 325° |
| 2026-05-07 04:42 | 1.26930 | 104.32360 | 8636 ft | 299 kts | 328° |
| 2026-05-07 04:42 | 1.28691 | 104.31279 | 8304 ft | 294 kts | 329° |
| 2026-05-07 04:42 | 1.30432 | 104.30225 | 8027 ft | 292 kts | 329° |
| 2026-05-07 04:43 | 1.32174 | 104.29179 | 7706 ft | 291 kts | 329° |
| 2026-05-07 04:43 | 1.33910 | 104.28140 | 7370 ft | 289 kts | 329° |
| 2026-05-07 04:43 | 1.35625 | 104.27114 | 7047 ft | 287 kts | 329° |
| 2026-05-07 04:43 | 1.37318 | 104.26102 | 6707 ft | 286 kts | 329° |
| 2026-05-07 04:44 | 1.39025 | 104.25084 | 6382 ft | 285 kts | 329° |
| 2026-05-07 04:44 | 1.40689 | 104.24088 | 6233 ft | 273 kts | 329° |
| 2026-05-07 04:44 | 1.42303 | 104.23125 | 6087 ft | 271 kts | 329° |
| 2026-05-07 04:44 | 1.43924 | 104.22158 | 5971 ft | 271 kts | 329° |
| 2026-05-07 04:45 | 1.45548 | 104.21190 | 5840 ft | 271 kts | 329° |
| 2026-05-07 04:45 | 1.47165 | 104.20225 | 5710 ft | 270 kts | 329° |
| 2026-05-07 04:45 | 1.48780 | 104.19263 | 5575 ft | 269 kts | 329° |
| 2026-05-07 04:45 | 1.50376 | 104.18312 | 5284 ft | 263 kts | 329° |
| 2026-05-07 04:46 | 1.51905 | 104.17376 | 5081 ft | 253 kts | 326° |
| 2026-05-07 04:46 | 1.53121 | 104.16138 | 4819 ft | 247 kts | 304° |
| 2026-05-07 04:46 | 1.54016 | 104.14733 | 4669 ft | 237 kts | 301° |
| 2026-05-07 04:46 | 1.54835 | 104.13341 | 4509 ft | 228 kts | 299° |
| 2026-05-07 04:47 | 1.55281 | 104.11881 | 4355 ft | 214 kts | 272° |
| 2026-05-07 04:47 | 1.55218 | 104.10433 | 4226 ft | 203 kts | 264° |
| 2026-05-07 04:47 | 1.55047 | 104.09045 | 4074 ft | 200 kts | 259° |
| 2026-05-07 04:47 | 1.54671 | 104.07705 | 3899 ft | 200 kts | 250° |
| 2026-05-07 04:48 | 1.54155 | 104.06418 | 3638 ft | 201 kts | 237° |
| 2026-05-07 04:48 | 1.53179 | 104.05443 | 3387 ft | 198 kts | 211° |
| 2026-05-07 04:48 | 1.51925 | 104.04911 | 3102 ft | 195 kts | 197° |
| 2026-05-07 04:48 | 1.50651 | 104.04451 | 2820 ft | 194 kts | 200° |
| 2026-05-07 04:49 | 1.49412 | 104.03890 | 2557 ft | 194 kts | 203° |
| 2026-05-07 04:49 | 1.48199 | 104.03378 | 2295 ft | 188 kts | 201° |
| 2026-05-07 04:49 | 1.47024 | 104.02886 | 2038 ft | 176 kts | 201° |
| 2026-05-07 04:49 | 1.45944 | 104.02424 | 1809 ft | 162 kts | 201° |
| 2026-05-07 04:50 | 1.44922 | 104.01992 | 1616 ft | 157 kts | 201° |
| 2026-05-07 04:50 | 1.43920 | 104.01567 | 1409 ft | 156 kts | 201° |
| 2026-05-07 04:50 | 1.42940 | 104.01151 | 1193 ft | 148 kts | 201° |
| 2026-05-07 04:50 | 1.42015 | 104.00758 | 1002 ft | 142 kts | 201° |
| 2026-05-07 04:51 | 1.41110 | 104.00375 | 816 ft | 140 kts | 201° |
| 2026-05-07 04:51 | 1.40230 | 104.00002 | 634 ft | 135 kts | 201° |
| 2026-05-07 04:51 | 1.39365 | 103.99636 | 456 ft | 134 kts | 201° |
| 2026-05-07 04:51 | 1.38501 | 103.99269 | 267 ft | 134 kts | 201° |
| 2026-05-07 04:52 | 1.37648 | 103.98903 | 100 ft | 134 kts | 201° |
| 2026-05-07 04:52 | 1.36837 | 103.98560 | 34 ft | 111 kts | 202° |
| 2026-05-07 04:52 | 1.36228 | 103.98302 | 34 ft | 78 kts | 204° |
| 2026-05-07 04:52 | 1.35783 | 103.98121 | 34 ft | 51 kts | 192° |
| 2026-05-07 04:53 | 1.35587 | 103.98112 | 36 ft | 19 kts | 176° |
| 2026-05-07 04:53 | 1.35528 | 103.98182 | 33 ft | 15 kts | 78° |
| 2026-05-07 04:53 | 1.35608 | 103.98247 | 32 ft | 16 kts | 22° |
| 2026-05-07 04:53 | 1.35722 | 103.98292 | 32 ft | 19 kts | 21° |
| 2026-05-07 04:54 | 1.35854 | 103.98347 | 32 ft | 22 kts | 23° |
| 2026-05-07 04:54 | 1.35998 | 103.98407 | 32 ft | 19 kts | 21° |
| 2026-05-07 04:54 | 1.36082 | 103.98444 | 32 ft | 14 kts | 36° |
| 2026-05-07 04:54 | 1.36088 | 103.98532 | 31 ft | 15 kts | 111° |
| 2026-05-07 04:55 | 1.36077 | 103.98625 | 31 ft | 12 kts | 52° |
| 2026-05-07 04:55 | 1.36127 | 103.98662 | 31 ft | 6 kts | 53° |
| 2026-05-07 04:55 | 1.36125 | 103.98699 | 31 ft | 7 kts | 102° |
| 2026-05-07 04:55 | 1.36110 | 103.98736 | 31 ft | 5 kts | 112° |
| 2026-05-07 04:56 | 1.36105 | 103.98750 | 31 ft | 0 kts | 112° |